Time;durP1;ratioP1;P1;durP2;ratioP2;P2;SDS_P1;SDS_P2;PMS_P1;PMS_P2;Temp;Humidity;BMP_temperature;BMP_pressure;BME280_temperature;BME280_humidity;BME280_pressure;Samples;Min_cycle;Max_cycle;Signal;HPM_P1;HPM_P2
2021/04/26 00:01:42;;;;;;;14.95;10.30;;;332.90;1638.40;;;;;;5090512;28;20044;-79
2021/04/26 00:04:08;;;;;;;20.67;11.50;;;332.90;1638.40;;;;;;5091007;28;20035;-79
2021/04/26 00:06:33;;;;;;;15.45;10.90;;;332.90;1664.00;;;;;;5090997;28;20024;-79
2021/04/26 00:08:59;;;;;;;23.55;11.00;;;332.80;1664.00;;;;;;5090964;28;20059;-80
2021/04/26 00:11:25;;;;;;;;;;;332.80;1689.60;;;;;;5092441;28;20040;-80
2021/04/26 00:13:50;;;;;;;17.13;10.60;;;308.10;1689.60;;;;;;5090790;28;19950;-80
2021/04/26 00:16:16;;;;;;;20.63;11.35;;;308.10;1689.60;;;;;;5090764;28;20480;-79
2021/04/26 00:18:42;;;;;;;;;;;307.90;1715.20;;;;;;5092608;28;20087;-79
2021/04/26 00:21:08;;;;;;;21.43;12.23;;;307.70;1766.40;;;;;;5092483;28;19908;-80
2021/04/26 00:23:34;;;;;;;21.42;12.80;;;307.60;1792.00;;;;;;5090896;28;20108;-79
2021/04/26 00:26:00;;;;;;;17.75;11.95;;;307.50;1843.20;;;;;;5090645;28;20107;-80
2021/04/26 00:28:25;;;;;;;;;;;307.40;1868.80;;;;;;5091043;28;20036;-79
2021/04/26 00:30:51;;;;;;;24.58;14.20;;;307.40;1868.80;;;;;;5091557;28;19908;-80
2021/04/26 00:33:17;;;;;;;22.85;13.25;;;307.30;1894.40;;;;;;5090623;28;20547;-80
2021/04/26 00:35:43;;;;;;;21.27;12.48;;;307.30;1920.00;;;;;;5090717;28;20027;-79
2021/04/26 00:38:08;;;;;;;22.10;13.20;;;307.30;1920.00;;;;;;5091846;28;20039;-79
2021/04/26 00:40:34;;;;;;;;;;;307.40;1894.40;;;;;;5091573;28;20113;-79
2021/04/26 00:43:00;;;;;;;25.20;14.23;;;307.50;1894.40;;;;;;5094453;28;20286;-79
2021/04/26 00:45:26;;;;;;;;;;;307.60;1920.00;;;;;;5095320;28;20039;-79
2021/04/26 00:47:52;;;;;;;24.25;13.40;;;307.60;1920.00;;;;;;5081936;28;19912;-79
2021/04/26 00:50:32;;;;;;;33.53;15.93;;;307.60;1920.00;;;;;;5093056;28;20073;-80
2021/04/26 00:53:01;;;;;;;27.33;14.85;;;307.60;1894.40;;;;;;5094330;28;20042;-79
2021/04/26 00:55:29;;;;;;;27.92;15.20;;;307.60;1920.00;;;;;;5095540;28;20444;-79
2021/04/26 00:57:55;;;;;;;28.05;14.88;;;307.60;1920.00;;;;;;5094367;28;20032;-79
2021/04/26 01:00:22;;;;;;;21.90;14.00;;;307.60;1920.00;;;;;;5095524;28;20536;-80
2021/04/26 01:02:48;;;;;;;31.73;15.98;;;307.30;1945.60;;;;;;5094558;28;20069;-79
2021/04/26 01:05:17;;;;;;;31.83;16.73;;;282.50;1971.20;;;;;;5094216;28;20094;-79
2021/04/26 01:07:44;;;;;;;29.08;16.98;;;282.30;1996.80;;;;;;5094481;28;20020;-80
2021/04/26 01:10:12;;;;;;;28.90;17.23;;;282.40;1996.80;;;;;;5095466;28;20016;-79
2021/04/26 01:12:56;;;;;;;27.80;17.02;;;282.20;2022.40;;;;;;5094341;28;20038;-80
2021/04/26 01:15:26;;;;;;;28.42;17.35;;;282.10;2048.00;;;;;;5095347;28;20020;-80
2021/04/26 01:18:16;;;;;;;28.30;17.50;;;282.00;2073.60;;;;;;5093964;28;20035;-79
2021/04/26 01:21:13;;;;;;;27.58;16.75;;;282.00;2073.60;;;;;;5093849;28;20089;-79
2021/04/26 01:23:39;;;;;;;24.17;14.73;;;282.00;2073.60;;;;;;5095844;28;20059;-79
2021/04/26 01:26:05;;;;;;;27.70;15.90;;;282.00;2073.60;;;;;;5095163;28;20100;-79
2021/04/26 01:29:15;;;;;;;25.95;16.55;;;282.00;2073.60;;;;;;5095169;28;20028;-79
2021/04/26 01:31:45;;;;;;;23.58;15.52;;;282.00;2073.60;;;;;;5093833;28;20494;-79
2021/04/26 01:34:12;;;;;;;28.05;15.55;;;282.20;2022.40;;;;;;5093883;28;20016;-79
2021/04/26 01:36:39;;;;;;;25.73;16.88;;;282.00;2048.00;;;;;;5095056;28;20055;-79
2021/04/26 01:39:06;;;;;;;33.90;16.63;;;282.00;2073.60;;;;;;5094063;28;20420;-80
2021/04/26 01:41:34;;;;;;;26.10;16.42;;;281.90;2073.60;;;;;;5094988;28;20209;-79
2021/04/26 01:44:01;;;;;;;26.88;17.10;;;281.90;2073.60;;;;;;5093895;28;20028;-79
2021/04/26 01:46:27;;;;;;;25.55;16.50;;;282.10;2048.00;;;;;;5081903;28;20042;-80
2021/04/26 01:48:55;;;;;;;29.33;17.17;;;282.30;2022.40;;;;;;5087251;28;20020;-79
2021/04/26 01:51:21;;;;;;;23.40;14.57;;;282.30;2022.40;;;;;;5092330;28;20425;-79
2021/04/26 01:53:47;;;;;;;20.20;14.80;;;282.20;2022.40;;;;;;5086753;28;20027;-79
2021/04/26 01:56:15;;;;;;;28.27;16.83;;;282.20;2022.40;;;;;;5078287;28;20594;-79
2021/04/26 01:58:43;;;;;;;26.38;16.58;;;282.10;2022.40;;;;;;5092962;28;20118;-80
2021/04/26 02:01:14;;;;;;;23.33;15.50;;;282.10;2048.00;;;;;;5094560;28;20017;-79
2021/04/26 02:03:42;;;;;;;25.40;15.57;;;281.80;2073.60;;;;;;5084326;28;20051;-79
2021/04/26 02:06:08;;;;;;;23.23;16.92;;;281.80;2073.60;;;;;;5089630;28;20456;-79
2021/04/26 02:08:35;;;;;;;38.08;19.25;;;281.90;2099.20;;;;;;5093077;28;20402;-80
2021/04/26 02:11:01;;;;;;;38.22;23.05;;;281.60;2099.20;;;;;;5094202;28;20024;-79
2021/04/26 02:13:28;;;;;;;35.63;20.63;;;256.90;2073.60;;;;;;5093216;28;20027;-79
2021/04/26 02:15:55;;;;;;;27.17;17.92;;;256.70;2073.60;;;;;;5092872;28;20035;-80
2021/04/26 02:18:22;;;;;;;24.73;16.60;;;256.70;2073.60;;;;;;5092923;28;20019;-80
2021/04/26 02:20:48;;;;;;;28.65;16.17;;;256.70;2073.60;;;;;;5082205;28;20027;-79
2021/04/26 02:23:15;;;;;;;25.33;16.77;;;256.70;2073.60;;;;;;5090601;28;20024;-79
2021/04/26 02:25:41;;;;;;;25.70;14.98;;;256.80;2073.60;;;;;;5094304;28;20027;-79
2021/04/26 02:28:07;;;;;;;25.85;15.43;;;256.80;2048.00;;;;;;5093901;28;20143;-79
2021/04/26 02:30:32;;;;;;;24.38;15.35;;;256.60;2073.60;;;;;;5093903;28;20099;-79
2021/04/26 02:33:08;;;;;;;;;;;256.70;2073.60;;;;;;5093127;28;20044;-80
2021/04/26 02:35:38;;;;;;;23.17;13.90;;;256.80;2048.00;;;;;;5093009;28;20419;-79
2021/04/26 02:38:11;;;;;;;27.33;15.13;;;281.60;2048.00;;;;;;5092544;28;20020;-79
2021/04/26 02:40:47;;;;;;;26.33;14.60;;;281.60;2048.00;;;;;;5092494;28;20040;-79
2021/04/26 02:43:14;;;;;;;21.50;14.30;;;281.60;2022.40;;;;;;5092481;28;20067;-80
2021/04/26 02:45:52;;;;;;;23.52;14.93;;;281.60;1996.80;;;;;;5092231;28;20116;-80
2021/04/26 02:48:19;;;;;;;21.77;14.05;;;281.70;1996.80;;;;;;5093890;28;20023;-80
2021/04/26 02:50:45;;;;;;;20.50;14.43;;;281.70;1971.20;;;;;;5078203;28;20418;-79
2021/04/26 02:53:14;;;;;;;23.65;15.32;;;281.80;1971.20;;;;;;5082852;28;20040;-79
2021/04/26 02:55:41;;;;;;;21.77;14.68;;;281.80;1971.20;;;;;;5077899;28;20191;-80
2021/04/26 02:58:08;;;;;;;21.52;14.07;;;281.80;1945.60;;;;;;5093356;28;20028;-79
2021/04/26 03:00:34;;;;;;;24.00;15.43;;;281.80;1945.60;;;;;;5091991;28;20066;-79
2021/04/26 03:03:01;;;;;;;23.35;14.35;;;256.90;1945.60;;;;;;5091995;28;20075;-79
2021/04/26 03:05:27;;;;;;;20.65;14.43;;;256.90;1971.20;;;;;;5091709;28;20101;-79
2021/04/26 03:07:54;;;;;;;25.15;15.85;;;256.80;1996.80;;;;;;5093068;28;20032;-79
2021/04/26 03:10:20;;;;;;;26.88;16.10;;;256.70;1996.80;;;;;;5092101;28;20024;-79
2021/04/26 03:12:50;;;;;;;33.22;19.15;;;256.70;1996.80;;;;;;5092904;28;20059;-79
2021/04/26 03:15:27;;;;;;;28.17;18.75;;;256.60;1996.80;;;;;;5093008;28;20024;-79
2021/04/26 03:17:54;;;;;;;24.48;16.85;;;256.30;2048.00;;;;;;5091190;28;20039;-79
2021/04/26 03:20:21;;;;;;;26.00;16.13;;;256.30;2022.40;;;;;;5091734;28;20062;-80
2021/04/26 03:22:48;;;;;;;27.88;17.25;;;256.30;2022.40;;;;;;5093625;28;20029;-82
2021/04/26 03:25:18;;;;;;;25.15;17.05;;;256.10;2048.00;;;;;;5093752;28;20529;-83
2021/04/26 03:27:46;;;;;;;31.23;19.60;;;231.20;2073.60;;;;;;5093416;28;20098;-87
2021/04/26 03:30:15;;;;;;;34.03;22.25;;;231.30;2048.00;;;;;;5092241;28;20028;-81
2021/04/26 03:32:42;;;;;;;37.30;21.88;;;231.10;2073.60;;;;;;5092256;28;20039;-85
2021/04/26 03:35:12;;;;;;;30.23;19.23;;;231.00;2073.60;;;;;;5093295;28;20367;-85
2021/04/26 03:37:39;;;;;;;27.08;17.58;;;230.90;2099.20;;;;;;5093263;28;20103;-87
2021/04/26 03:40:06;;;;;;;31.85;18.33;;;231.00;2099.20;;;;;;5093319;28;20460;-86
2021/04/26 03:42:32;;;;;;;30.42;16.17;;;231.10;2099.20;;;;;;5093169;28;20028;-84
2021/04/26 03:44:58;;;;;;;26.20;16.00;;;231.30;2048.00;;;;;;5091643;28;20043;-85
2021/04/26 03:47:23;;;;;;;;;;;231.30;2048.00;;;;;;5092371;28;20020;-86
2021/04/26 03:49:49;;;;;;;26.75;15.13;;;231.30;2048.00;;;;;;5091927;28;19904;-79
2021/04/26 03:52:15;;;;;;;;;;;256.10;2022.40;;;;;;5092117;28;20426;-85
2021/04/26 03:54:41;;;;;;;24.50;14.82;;;256.30;2022.40;;;;;;5083411;28;19950;-87
2021/04/26 03:57:07;;;;;;;;;;;256.40;1996.80;;;;;;5086348;28;20131;-80
2021/04/26 03:59:33;;;;;;;21.35;14.70;;;256.40;1996.80;;;;;;5091753;28;20404;-83
2021/04/26 04:01:58;;;;;;;30.85;16.73;;;256.30;1996.80;;;;;;5091712;28;20078;-86
2021/04/26 04:04:25;;;;;;;23.98;14.77;;;256.10;1996.80;;;;;;5091674;28;20079;-85
2021/04/26 04:06:51;;;;;;;24.85;15.75;;;256.20;1996.80;;;;;;5092901;28;20028;-79
2021/04/26 04:09:17;;;;;;;30.25;16.70;;;256.00;2022.40;;;;;;5091096;28;20508;-80
2021/04/26 04:11:44;;;;;;;23.63;15.38;;;231.30;2022.40;;;;;;5092660;28;20063;-88
2021/04/26 04:14:10;;;;;;;21.67;15.52;;;231.20;2048.00;;;;;;5091021;28;20091;-83
2021/04/26 04:16:36;;;;;;;23.88;15.63;;;231.20;2022.40;;;;;;5092842;28;20035;-83
2021/04/26 04:19:02;;;;;;;24.02;15.43;;;231.30;2022.40;;;;;;5096330;28;20019;-87
2021/04/26 04:21:28;;;;;;;25.77;15.30;;;256.00;1996.80;;;;;;5099257;28;20460;-82
2021/04/26 04:23:53;;;;;;;24.25;15.07;;;256.20;1971.20;;;;;;5092255;28;20027;-84
2021/04/26 04:26:19;;;;;;;;;;;256.20;1945.60;;;;;;5091695;28;20032;-86
2021/04/26 04:28:45;;;;;;;22.63;13.88;;;256.50;1920.00;;;;;;5091208;28;19918;-81
2021/04/26 04:31:11;;;;;;;20.02;14.20;;;256.40;1894.40;;;;;;5090833;28;20028;-84
2021/04/26 04:33:37;;;;;;;20.70;14.05;;;256.50;1894.40;;;;;;5091245;28;20031;-82
2021/04/26 04:36:03;;;;;;;25.40;14.05;;;256.30;1920.00;;;;;;5092186;28;20028;-81
2021/04/26 04:38:29;;;;;;;;;;;256.50;1894.40;;;;;;5086000;28;20024;-80
2021/04/26 04:40:56;;;;;;;20.48;13.40;;;256.50;1894.40;;;;;;5082557;28;20271;-88
2021/04/26 04:43:22;;;;;;;19.15;12.52;;;256.40;1894.40;;;;;;5082601;28;20035;-82
2021/04/26 04:45:48;;;;;;;18.30;11.10;;;256.40;1894.40;;;;;;5083886;28;20028;-84
2021/04/26 04:48:13;;;;;;;21.67;12.05;;;256.50;1843.20;;;;;;5086082;28;20028;-80
2021/04/26 04:50:39;;;;;;;17.20;12.10;;;256.50;1843.20;;;;;;5086422;28;20357;-84
2021/04/26 04:53:05;;;;;;;;;;;256.50;1817.60;;;;;;5091527;28;20455;-84
2021/04/26 04:55:31;;;;;;;18.38;11.07;;;256.50;1817.60;;;;;;5076527;28;19912;-79
2021/04/26 04:57:56;;;;;;;;;;;256.40;1817.60;;;;;;5091127;28;20143;-81
2021/04/26 05:00:22;;;;;;;16.25;10.02;;;256.30;1817.60;;;;;;5090620;28;20003;-84
2021/04/26 05:02:48;;;;;;;21.00;10.90;;;256.30;1792.00;;;;;;5090824;28;20048;-85
2021/04/26 05:05:14;;;;;;;16.45;10.27;;;256.30;1792.00;;;;;;5091206;28;20062;-85
2021/04/26 05:07:39;;;;;;;;;;;256.50;1766.40;;;;;;5091517;28;20464;-85
2021/04/26 05:10:06;;;;;;;15.00;9.35;;;256.70;1740.80;;;;;;5073494;28;19904;-81
2021/04/26 05:12:32;;;;;;;21.52;10.05;;;256.60;1740.80;;;;;;5075425;28;20040;-83
2021/04/26 05:14:58;;;;;;;17.13;10.02;;;256.80;1715.20;;;;;;5075660;28;20024;-82
2021/04/26 05:17:26;;;;;;;19.00;9.25;;;256.90;1689.60;;;;;;5074371;28;20539;-81
2021/04/26 05:19:52;;;;;;;15.55;8.73;;;256.70;1689.60;;;;;;5075486;28;20423;-84
2021/04/26 05:22:18;;;;;;;15.10;9.00;;;256.60;1689.60;;;;;;5074159;28;20077;-81
2021/04/26 05:24:43;;;;;;;15.52;8.45;;;256.70;1689.60;;;;;;5077880;28;20077;-85
2021/04/26 05:27:09;;;;;;;14.35;7.88;;;256.70;1664.00;;;;;;5078713;28;20028;-81
2021/04/26 05:29:35;;;;;;;13.63;7.40;;;256.70;1664.00;;;;;;5081763;28;20099;-86
2021/04/26 05:32:00;;;;;;;;;;;256.80;1638.40;;;;;;5078394;28;20037;-79
2021/04/26 05:34:26;;;;;;;11.15;6.82;;;256.70;1638.40;;;;;;5076229;28;19908;-84
2021/04/26 05:36:52;;;;;;;;;;;256.70;1587.20;;;;;;5082018;28;20399;-79
2021/04/26 05:39:18;;;;;;;14.63;8.00;;;256.80;1587.20;;;;;;5083257;28;19958;-82
2021/04/26 05:41:44;;;;;;;14.68;7.10;;;256.70;1612.80;;;;;;5075308;28;20028;-80
2021/04/26 05:44:09;;;;;;;12.82;7.97;;;256.70;1612.80;;;;;;5078851;28;20016;-84
2021/04/26 05:46:35;;;;;;;;;;;256.80;1612.80;;;;;;5086078;28;20094;-78
2021/04/26 05:49:01;;;;;;;11.38;7.07;;;256.80;1561.60;;;;;;5093097;28;19947;-78
2021/04/26 05:51:27;;;;;;;;;;;256.80;1587.20;;;;;;5081170;28;20380;-83
2021/04/26 05:53:52;;;;;;;12.75;6.32;;;256.90;1561.60;;;;;;5092994;28;19908;-83
2021/04/26 05:56:18;;;;;;;;;;;256.90;1510.40;;;;;;5082196;28;20024;-87
2021/04/26 05:58:44;;;;;;;11.25;5.72;;;256.90;1510.40;;;;;;5082768;28;20375;-88
2021/04/26 06:01:09;;;;;;;;;;;256.90;1484.80;;;;;;5092045;28;20369;-79
2021/04/26 06:03:35;;;;;;;11.00;6.32;;;256.80;1510.40;;;;;;5089317;28;20409;-87
2021/04/26 06:06:01;;;;;;;;;;;281.60;1536.00;;;;;;5089531;28;20031;-81
2021/04/26 06:08:27;;;;;;;13.43;6.47;;;281.60;1484.80;;;;;;5090085;28;20346;-87
2021/04/26 06:10:52;;;;;;;;;;;281.90;1510.40;;;;;;5086822;28;20017;-87
2021/04/26 06:13:18;;;;;;;12.45;5.68;;;282.00;1484.80;;;;;;5091033;28;19912;-91
2021/04/26 06:15:44;;;;;;;8.27;5.28;;;282.00;1484.80;;;;;;5090044;28;20076;-91
2021/04/26 06:18:12;;;;;;;14.15;6.05;;;282.10;1433.60;;;;;;5077218;28;20028;-86
2021/04/26 06:20:40;;;;;;;11.85;5.72;;;282.10;1459.20;;;;;;5092122;28;20026;-90
2021/04/26 06:23:06;;;;;;;16.20;5.70;;;282.10;1459.20;;;;;;5075855;28;20020;-82
2021/04/26 06:25:36;;;;;;;12.90;5.90;;;282.20;1408.00;;;;;;5088777;28;20024;-83
2021/04/26 06:28:03;;;;;;;11.30;5.72;;;282.20;1408.00;;;;;;5089829;28;20050;-80
2021/04/26 06:30:29;;;;;;;10.60;5.65;;;282.30;1408.00;;;;;;5093201;28;20357;-80
2021/04/26 06:32:54;;;;;;;9.30;5.65;;;282.30;1433.60;;;;;;5082518;28;20089;-84
2021/04/26 06:35:20;;;;;;;;;;;282.50;1382.40;;;;;;5088686;28;20464;-82
2021/04/26 06:37:46;;;;;;;10.52;5.45;;;307.30;1408.00;;;;;;5084561;28;19905;-89
2021/04/26 06:40:12;;;;;;;;;;;307.40;1408.00;;;;;;5091634;28;20016;-80
2021/04/26 06:42:37;;;;;;;9.80;6.13;;;307.50;1382.40;;;;;;5088699;28;20021;-79
2021/04/26 06:45:04;;;;;;;10.35;5.43;;;307.60;1382.40;;;;;;5086940;28;20132;-85
2021/04/26 06:47:29;;;;;;;10.15;5.32;;;307.80;1331.20;;;;;;5090293;28;20016;-83
2021/04/26 06:49:55;;;;;;;17.90;6.68;;;307.90;1408.00;;;;;;5091695;28;20028;-85
2021/04/26 06:52:21;;;;;;;11.43;6.22;;;307.80;1356.80;;;;;;5093972;28;20107;-83
2021/04/26 06:54:47;;;;;;;;;;;308.00;1331.20;;;;;;5083689;28;20024;-79
2021/04/26 06:57:13;;;;;;;14.70;6.07;;;308.10;1331.20;;;;;;5073556;28;19911;-81
2021/04/26 06:59:39;;;;;;;10.23;5.53;;;308.10;1280.00;;;;;;5080431;28;20051;-82
2021/04/26 07:02:05;;;;;;;11.73;6.03;;;308.10;1305.60;;;;;;5093728;28;20024;-80
2021/04/26 07:04:30;;;;;;;13.05;6.07;;;332.80;1408.00;;;;;;5079012;28;20027;-78
2021/04/26 07:06:56;;;;;;;10.38;5.97;;;308.10;1356.80;;;;;;5082235;28;20037;-80
2021/04/26 07:09:22;;;;;;;12.60;5.88;;;308.10;1305.60;;;;;;5090280;28;20039;-80
2021/04/26 07:11:49;;;;;;;;;;;332.80;1356.80;;;;;;5077284;28;20031;-80
2021/04/26 07:14:15;;;;;;;10.23;5.70;;;332.80;1356.80;;;;;;5078112;28;19959;-79
2021/04/26 07:16:41;;;;;;;10.65;5.40;;;332.90;1356.80;;;;;;5082433;28;20022;-79
2021/04/26 07:19:07;;;;;;;11.15;5.43;;;332.90;1280.00;;;;;;5081992;28;20472;-79
2021/04/26 07:21:33;;;;;;;9.57;5.53;;;332.90;1305.60;;;;;;5085812;28;20074;-85
2021/04/26 07:23:59;;;;;;;16.67;7.63;;;332.90;1305.60;;;;;;5076567;28;20107;-79
2021/04/26 07:26:25;;;;;;;9.85;5.57;;;332.80;1254.40;;;;;;5080026;28;20523;-79
2021/04/26 07:28:50;;;;;;;;;;;332.80;1280.00;;;;;;5087302;28;20032;-79
2021/04/26 07:31:16;;;;;;;7.60;5.07;;;332.90;1305.60;;;;;;5077563;28;20002;-81
2021/04/26 07:33:42;;;;;;;9.45;4.68;;;332.90;1280.00;;;;;;5078276;28;20472;-79
2021/04/26 07:36:08;;;;;;;;;;;333.10;1280.00;;;;;;5078705;28;20346;-78
2021/04/26 07:38:34;;;;;;;9.73;4.43;;;333.20;1228.80;;;;;;5083579;28;19930;-80
2021/04/26 07:41:00;;;;;;;10.50;4.25;;;333.30;1228.80;;;;;;5084341;28;20016;-80
2021/04/26 07:43:25;;;;;;;9.07;4.75;;;333.30;1228.80;;;;;;5091263;28;20179;-78
2021/04/26 07:45:51;;;;;;;9.50;4.72;;;333.30;1203.20;;;;;;5087402;28;20060;-78
2021/04/26 07:48:17;;;;;;;9.45;4.65;;;333.50;1203.20;;;;;;5086564;28;20074;-79
2021/04/26 07:50:44;;;;;;;15.18;5.15;;;333.50;1177.60;;;;;;5081406;28;20111;-79
2021/04/26 07:53:10;;;;;;;11.18;4.63;;;333.70;1152.00;;;;;;5087561;28;20032;-79
2021/04/26 07:55:36;;;;;;;12.93;5.18;;;333.70;1203.20;;;;;;5092676;28;20073;-80
2021/04/26 07:58:02;;;;;;;10.10;4.72;;;333.60;1177.60;;;;;;5092221;28;20024;-79
2021/04/26 08:00:29;;;;;;;38.53;6.80;;;333.70;1152.00;;;;;;5092686;28;20158;-80
2021/04/26 08:02:55;;;;;;;14.20;4.28;;;358.50;1228.80;;;;;;5092297;28;20032;-80
2021/04/26 08:05:21;;;;;;;8.68;4.70;;;358.50;1177.60;;;;;;5091227;28;20023;-80
2021/04/26 08:07:47;;;;;;;10.60;4.55;;;358.60;1126.40;;;;;;5080511;28;20028;-80
2021/04/26 08:10:13;;;;;;;6.97;3.58;;;358.70;1100.80;;;;;;5084590;28;20480;-83
2021/04/26 08:12:40;;;;;;;8.57;3.55;;;358.70;1100.80;;;;;;5085054;28;20078;-79
2021/04/26 08:15:09;;;;;;;11.40;4.88;;;358.60;1024.00;;;;;;5089644;28;20024;-84
2021/04/26 08:17:35;;;;;;;9.63;4.13;;;358.60;1024.00;;;;;;5089901;28;20044;-83
2021/04/26 08:20:01;;;;;;;9.07;4.45;;;358.70;1049.60;;;;;;5089452;28;20102;-82
2021/04/26 08:22:26;;;;;;;7.05;4.22;;;359.00;1100.80;;;;;;5084646;28;20034;-84
2021/04/26 08:24:52;;;;;;;10.50;4.47;;;359.30;1024.00;;;;;;5082605;28;20179;-83
2021/04/26 08:27:18;;;;;;;7.05;3.95;;;359.30;947.20;;;;;;5080785;28;20021;-84
2021/04/26 08:29:44;;;;;;;8.20;3.75;;;384.10;972.80;;;;;;5086201;28;20088;-84
2021/04/26 08:32:12;;;;;;;6.82;3.90;;;359.30;947.20;;;;;;5084675;28;20067;-85
2021/04/26 08:34:37;;;;;;;10.43;4.32;;;384.20;896.00;;;;;;5076380;28;20368;-87
2021/04/26 08:37:03;;;;;;;11.95;5.15;;;384.30;921.60;;;;;;5093308;28;20032;-81
2021/04/26 08:39:29;;;;;;;8.98;5.47;;;384.10;921.60;;;;;;5087589;28;20031;-85
2021/04/26 08:41:55;;;;;;;10.80;5.15;;;384.10;921.60;;;;;;5088344;28;20038;-84
2021/04/26 08:44:21;;;;;;;10.18;5.53;;;384.10;972.80;;;;;;5089368;28;20054;-84
2021/04/26 08:46:47;;;;;;;9.95;4.70;;;384.30;921.60;;;;;;5088098;28;20024;-80
2021/04/26 08:49:16;;;;;;;9.73;5.30;;;384.60;844.80;;;;;;5091988;28;20110;-83
2021/04/26 08:51:43;;;;;;;9.63;4.57;;;384.40;921.60;;;;;;5086980;28;20025;-83
2021/04/26 08:54:11;;;;;;;8.13;4.25;;;384.40;921.60;;;;;;5083502;28;20020;-81
2021/04/26 08:56:37;;;;;;;10.23;4.10;;;384.60;870.40;;;;;;5083557;28;20024;-81
2021/04/26 08:59:04;;;;;;;7.85;4.55;;;384.60;896.00;;;;;;5090798;28;20098;-82
2021/04/26 09:01:30;;;;;;;8.20;3.90;;;384.70;844.80;;;;;;5091952;28;20032;-82
2021/04/26 09:04:05;;;;;;;7.60;3.50;;;384.80;768.00;;;;;;5094213;28;20490;-81
2021/04/26 09:06:57;;;;;;;10.10;3.83;;;384.70;742.40;;;;;;5088943;28;20021;-79
2021/04/26 09:09:43;;;;;;;9.73;6.05;;;384.90;742.40;;;;;;5088354;28;20020;-79
2021/04/26 09:12:25;;;;;;;9.37;3.97;;;409.80;819.20;;;;;;5083991;28;20024;-83
2021/04/26 09:14:54;;;;;;;7.35;4.22;;;409.90;793.60;;;;;;5089067;28;20015;-84
2021/04/26 09:17:30;;;;;;;7.65;3.50;;;;;;;;;;5078287;28;20096;-79
2021/04/26 09:19:59;;;;;;;6.43;3.75;;;410.10;870.40;;;;;;5079126;28;20032;-89
2021/04/26 09:22:49;;;;;;;9.55;3.83;;;409.60;819.20;;;;;;5089508;28;20502;-87
2021/04/26 09:25:29;;;;;;;9.80;4.15;;;409.70;742.40;;;;;;5079615;28;20583;-86
2021/04/26 09:28:17;;;;;;;8.20;3.85;;;410.00;793.60;;;;;;5080686;28;20123;-82
2021/04/26 09:30:48;;;;;;;11.70;3.80;;;410.10;844.80;;;;;;5082064;28;20508;-83
2021/04/26 09:33:30;;;;;;;8.68;4.30;;;410.40;793.60;;;;;;5085271;28;20529;-81
2021/04/26 09:36:20;;;;;;;12.85;3.97;;;410.30;768.00;;;;;;5094072;28;20020;-83
2021/04/26 09:38:48;;;;;;;12.57;4.35;;;410.50;768.00;;;;;;5093350;28;20032;-85
2021/04/26 09:41:28;;;;;;;6.00;3.40;;;410.50;768.00;;;;;;5092926;28;20085;-81
2021/04/26 09:43:54;;;;;;;6.72;3.47;;;435.40;716.80;;;;;;5090678;28;20024;-81
2021/04/26 09:46:21;;;;;;;7.85;3.78;;;435.60;716.80;;;;;;5078401;28;20495;-81
2021/04/26 09:48:48;;;;;;;10.10;4.25;;;435.50;665.60;;;;;;5077106;28;20848;-79
2021/04/26 09:51:21;;;;;;;6.80;3.78;;;435.60;716.80;;;;;;5086693;28;20452;-80
2021/04/26 09:53:52;;;;;;;6.57;3.50;;;435.80;691.20;;;;;;5082119;28;20032;-80
2021/04/26 09:56:38;;;;;;;10.98;3.90;;;435.90;716.80;;;;;;5082290;28;20016;-80
2021/04/26 09:59:04;;;;;;;7.00;4.22;;;436.10;742.40;;;;;;5094234;28;20084;-79
2021/04/26 10:01:30;;;;;;;8.10;4.22;;;436.10;716.80;;;;;;5094857;28;20450;-79
2021/04/26 10:03:57;;;;;;;11.57;4.85;;;436.10;716.80;;;;;;5094461;28;20111;-78
2021/04/26 10:06:25;;;;;;;6.20;4.35;;;460.80;742.40;;;;;;5088909;28;20013;-80
2021/04/26 10:08:56;;;;;;;8.85;4.40;;;460.90;742.40;;;;;;5073037;28;20028;-77
2021/04/26 10:11:23;;;;;;;7.63;4.00;;;461.10;691.20;;;;;;5093864;28;20023;-78
2021/04/26 10:13:50;;;;;;;10.48;3.92;;;461.20;691.20;;;;;;5093166;28;20036;-79
2021/04/26 10:16:32;;;;;;;6.38;4.25;;;461.40;691.20;;;;;;5094434;28;20024;-83
2021/04/26 10:18:59;;;;;;;15.00;3.83;;;461.40;691.20;;;;;;5094427;28;20016;-83
2021/04/26 10:21:25;;;;;;;7.32;4.00;;;461.40;716.80;;;;;;5094496;28;20016;-84
2021/04/26 10:23:52;;;;;;;5.82;3.63;;;461.40;691.20;;;;;;5080948;28;20043;-79
2021/04/26 10:26:44;;;;;;;7.22;3.78;;;461.50;665.60;;;;;;5092608;28;20024;-77
2021/04/26 10:29:15;;;;;;;7.32;4.03;;;461.50;691.20;;;;;;5094190;28;20024;-87
2021/04/26 10:31:59;;;;;;;12.95;3.85;;;461.50;691.20;;;;;;5094343;28;20079;-77
2021/04/26 10:34:48;;;;;;;8.75;3.78;;;461.70;691.20;;;;;;5093970;28;20045;-77
2021/04/26 10:37:17;;;;;;;6.60;3.45;;;486.40;716.80;;;;;;5084485;28;20115;-81
2021/04/26 10:40:06;;;;;;;6.43;3.53;;;486.60;691.20;;;;;;5089187;28;20026;-80
2021/04/26 10:42:35;;;;;;;11.90;4.13;;;486.50;665.60;;;;;;5086721;28;20024;-77
2021/04/26 10:45:12;;;;;;;6.25;3.50;;;486.40;768.00;;;;;;5093702;28;20471;-77
2021/04/26 10:47:42;;;;;;;5.70;3.13;;;461.20;691.20;;;;;;5081115;28;20422;-86
2021/04/26 10:50:07;;;;;;;7.15;3.85;;;461.70;691.20;;;;;;5093227;28;20051;-78
2021/04/26 10:52:34;;;;;;;6.20;3.33;;;486.40;665.60;;;;;;5093606;28;20067;-77
2021/04/26 10:55:05;;;;;;;6.57;3.38;;;486.60;665.60;;;;;;5093751;28;20020;-76
2021/04/26 10:57:32;;;;;;;10.23;4.00;;;461.70;691.20;;;;;;5093476;28;20024;-79
2021/04/26 11:00:23;;;;;;;6.55;3.92;;;486.70;691.20;;;;;;5082300;28;20488;-79
2021/04/26 11:02:49;;;;;;;5.15;3.75;;;486.80;665.60;;;;;;5078350;28;20379;-79
2021/04/26 11:05:19;;;;;;;13.25;4.07;;;486.80;691.20;;;;;;5082191;28;20016;-85
2021/04/26 11:07:50;;;;;;;8.88;3.60;;;486.80;716.80;;;;;;5079137;28;20027;-83
2021/04/26 11:10:39;;;;;;;12.73;3.70;;;486.50;691.20;;;;;;5081100;28;20098;-79
2021/04/26 11:13:33;;;;;;;8.35;3.92;;;486.80;691.20;;;;;;5076578;28;20036;-79
2021/04/26 11:16:05;;;;;;;6.43;3.42;;;487.00;665.60;;;;;;5079873;28;20491;-78
2021/04/26 11:18:33;;;;;;;7.45;3.85;;;486.80;665.60;;;;;;5091906;28;20157;-79
2021/04/26 11:20:59;;;;;;;6.30;2.95;;;486.80;691.20;;;;;;5093086;28;20672;-79
2021/04/26 11:23:45;;;;;;;10.30;3.28;;;486.70;691.20;;;;;;5092283;28;20027;-85
2021/04/26 11:26:19;;;;;;;6.85;3.78;;;486.80;691.20;;;;;;5092980;28;20420;-79
2021/04/26 11:29:11;;;;;;;8.23;3.28;;;487.10;665.60;;;;;;5091472;28;20115;-80
2021/04/26 11:31:43;;;;;;;8.23;3.35;;;487.30;665.60;;;;;;5092960;28;20028;-78
2021/04/26 11:34:10;;;;;;;8.10;3.30;;;512.00;691.20;;;;;;5090485;28;20035;-80
2021/04/26 11:36:38;;;;;;;8.52;3.83;;;487.10;691.20;;;;;;5080463;28;20020;-83
2021/04/26 11:39:08;;;;;;;8.25;3.38;;;486.80;691.20;;;;;;5077828;28;20546;-82
2021/04/26 11:41:42;;;;;;;6.70;3.22;;;487.00;691.20;;;;;;5072964;28;20032;-80
2021/04/26 11:44:08;;;;;;;9.38;3.35;;;487.10;691.20;;;;;;5089193;28;20081;-80
2021/04/26 11:46:34;;;;;;;6.90;3.75;;;487.30;640.00;;;;;;5092100;28;20157;-79
2021/04/26 11:49:18;;;;;;;19.98;3.40;;;512.10;691.20;;;;;;5090802;28;20032;-79
2021/04/26 11:51:46;;;;;;;9.50;3.47;;;512.00;665.60;;;;;;5077391;28;20033;-80
2021/04/26 11:54:23;;;;;;;6.72;3.65;;;487.30;640.00;;;;;;5079498;28;20016;-78
2021/04/26 11:57:16;;;;;;;6.90;3.63;;;487.30;640.00;;;;;;5103510;28;20074;-79
2021/04/26 12:00:09;;;;;;;6.88;2.97;;;487.30;665.60;;;;;;5077048;28;20052;-84
2021/04/26 12:02:39;;;;;;;8.23;3.65;;;512.10;665.60;;;;;;5080426;28;20500;-83
2021/04/26 12:05:08;;;;;;;13.65;4.15;;;486.40;665.60;;;;;;5079894;28;20465;-81
2021/04/26 12:07:34;;;;;;;6.53;3.63;;;486.70;691.20;;;;;;5084195;28;20054;-84
2021/04/26 12:10:04;;;;;;;5.30;3.38;;;486.70;691.20;;;;;;5091618;28;20065;-80
2021/04/26 12:12:31;;;;;;;7.93;3.30;;;486.70;691.20;;;;;;5092089;28;20040;-79
2021/04/26 12:15:05;;;;;;;11.23;3.33;;;486.60;665.60;;;;;;5085693;28;20031;-80
2021/04/26 12:17:33;;;;;;;7.82;3.35;;;486.60;665.60;;;;;;5074548;28;20032;-79
2021/04/26 12:20:01;;;;;;;8.60;3.75;;;486.70;665.60;;;;;;5075335;28;20412;-80
2021/04/26 12:22:34;;;;;;;8.15;3.38;;;487.00;691.20;;;;;;5088174;28;20020;-83
2021/04/26 12:25:06;;;;;;;8.35;4.15;;;487.20;665.60;;;;;;5083358;28;20034;-80
2021/04/26 12:31:03;;;;;;;9.75;3.47;;;487.10;614.40;;;;;;5167358;23;20503;-80